sensor_id;sensor_type;location;lat;lon;timestamp;temperature;humidity
49793;DHT22;35690;37.536;-122.304;2022-07-01T00:01:42;24.20;45.80
49793;DHT22;35690;37.536;-122.304;2022-07-01T00:04:10;24.40;45.60
49793;DHT22;35690;37.536;-122.304;2022-07-01T00:06:37;24.40;45.30
49793;DHT22;35690;37.536;-122.304;2022-07-01T00:09:05;24.20;45.60
49793;DHT22;35690;37.536;-122.304;2022-07-01T00:11:32;24.00;46.20
49793;DHT22;35690;37.536;-122.304;2022-07-01T00:13:59;24.20;45.80
49793;DHT22;35690;37.536;-122.304;2022-07-01T00:16:25;24.20;45.90
49793;DHT22;35690;37.536;-122.304;2022-07-01T00:18:51;24.00;46.10
49793;DHT22;35690;37.536;-122.304;2022-07-01T00:21:18;24.30;45.60
49793;DHT22;35690;37.536;-122.304;2022-07-01T00:23:44;24.40;45.30
49793;DHT22;35690;37.536;-122.304;2022-07-01T00:26:11;24.40;45.30
49793;DHT22;35690;37.536;-122.304;2022-07-01T00:28:37;24.30;45.50
49793;DHT22;35690;37.536;-122.304;2022-07-01T00:31:03;24.40;45.70
49793;DHT22;35690;37.536;-122.304;2022-07-01T00:33:30;24.20;45.40
49793;DHT22;35690;37.536;-122.304;2022-07-01T00:35:56;24.10;46.10
49793;DHT22;35690;37.536;-122.304;2022-07-01T00:38:24;23.60;46.60
49793;DHT22;35690;37.536;-122.304;2022-07-01T00:40:54;24.00;46.20
49793;DHT22;35690;37.536;-122.304;2022-07-01T00:43:22;24.30;45.40
49793;DHT22;35690;37.536;-122.304;2022-07-01T00:45:52;24.00;45.80
49793;DHT22;35690;37.536;-122.304;2022-07-01T00:48:21;23.80;46.40
49793;DHT22;35690;37.536;-122.304;2022-07-01T00:50:47;23.80;46.30
49793;DHT22;35690;37.536;-122.304;2022-07-01T00:53:14;23.80;46.60
49793;DHT22;35690;37.536;-122.304;2022-07-01T00:55:41;24.20;45.70
49793;DHT22;35690;37.536;-122.304;2022-07-01T00:58:09;24.20;45.50
49793;DHT22;35690;37.536;-122.304;2022-07-01T01:00:37;23.80;46.40
49793;DHT22;35690;37.536;-122.304;2022-07-01T01:03:07;24.00;46.20
49793;DHT22;35690;37.536;-122.304;2022-07-01T01:05:37;23.30;47.30
49793;DHT22;35690;37.536;-122.304;2022-07-01T01:08:06;23.60;47.00
49793;DHT22;35690;37.536;-122.304;2022-07-01T01:10:36;24.00;46.20
49793;DHT22;35690;37.536;-122.304;2022-07-01T01:13:03;24.00;45.90
49793;DHT22;35690;37.536;-122.304;2022-07-01T01:15:30;23.80;46.30
49793;DHT22;35690;37.536;-122.304;2022-07-01T01:17:57;23.80;46.20
49793;DHT22;35690;37.536;-122.304;2022-07-01T01:20:24;23.60;46.60
49793;DHT22;35690;37.536;-122.304;2022-07-01T01:22:50;24.00;46.20
49793;DHT22;35690;37.536;-122.304;2022-07-01T01:25:18;24.00;46.10
49793;DHT22;35690;37.536;-122.304;2022-07-01T01:27:45;24.00;46.10
49793;DHT22;35690;37.536;-122.304;2022-07-01T01:30:12;24.10;45.90
49793;DHT22;35690;37.536;-122.304;2022-07-01T01:32:40;23.70;46.40
49793;DHT22;35690;37.536;-122.304;2022-07-01T01:35:10;23.80;46.60
49793;DHT22;35690;37.536;-122.304;2022-07-01T01:37:37;23.90;46.20
49793;DHT22;35690;37.536;-122.304;2022-07-01T01:40:04;23.90;46.00
49793;DHT22;35690;37.536;-122.304;2022-07-01T01:42:31;23.80;46.40
49793;DHT22;35690;37.536;-122.304;2022-07-01T01:44:58;23.80;46.60
49793;DHT22;35690;37.536;-122.304;2022-07-01T01:47:24;23.90;46.90
49793;DHT22;35690;37.536;-122.304;2022-07-01T01:49:51;23.90;46.20
49793;DHT22;35690;37.536;-122.304;2022-07-01T01:52:17;23.80;46.30
49793;DHT22;35690;37.536;-122.304;2022-07-01T01:54:44;23.70;46.50
49793;DHT22;35690;37.536;-122.304;2022-07-01T01:57:10;23.80;46.50
49793;DHT22;35690;37.536;-122.304;2022-07-01T01:59:37;23.80;46.30
49793;DHT22;35690;37.536;-122.304;2022-07-01T02:02:03;23.70;46.50
49793;DHT22;35690;37.536;-122.304;2022-07-01T02:04:30;23.60;46.60
49793;DHT22;35690;37.536;-122.304;2022-07-01T02:06:56;23.70;46.50
49793;DHT22;35690;37.536;-122.304;2022-07-01T02:09:23;23.80;46.40
49793;DHT22;35690;37.536;-122.304;2022-07-01T02:11:49;23.60;46.50
49793;DHT22;35690;37.536;-122.304;2022-07-01T02:14:16;23.70;46.60
49793;DHT22;35690;37.536;-122.304;2022-07-01T02:16:42;23.70;46.50
49793;DHT22;35690;37.536;-122.304;2022-07-01T02:19:09;23.50;46.80
49793;DHT22;35690;37.536;-122.304;2022-07-01T02:21:35;23.50;46.80
49793;DHT22;35690;37.536;-122.304;2022-07-01T02:24:02;23.60;46.80
49793;DHT22;35690;37.536;-122.304;2022-07-01T02:26:28;23.40;47.10
49793;DHT22;35690;37.536;-122.304;2022-07-01T02:28:54;23.50;47.10
49793;DHT22;35690;37.536;-122.304;2022-07-01T02:31:21;23.30;47.10
49793;DHT22;35690;37.536;-122.304;2022-07-01T02:33:48;23.50;47.00
49793;DHT22;35690;37.536;-122.304;2022-07-01T02:36:15;23.50;47.00
49793;DHT22;35690;37.536;-122.304;2022-07-01T02:38:42;23.40;47.20
49793;DHT22;35690;37.536;-122.304;2022-07-01T02:41:08;23.40;47.30
49793;DHT22;35690;37.536;-122.304;2022-07-01T02:43:36;23.30;47.20
49793;DHT22;35690;37.536;-122.304;2022-07-01T02:46:02;23.20;47.70
49793;DHT22;35690;37.536;-122.304;2022-07-01T02:48:29;23.20;47.80
49793;DHT22;35690;37.536;-122.304;2022-07-01T02:50:55;23.20;48.10
49793;DHT22;35690;37.536;-122.304;2022-07-01T02:53:42;23.10;48.00
49793;DHT22;35690;37.536;-122.304;2022-07-01T02:56:08;23.20;48.00
49793;DHT22;35690;37.536;-122.304;2022-07-01T02:58:36;23.10;47.80
49793;DHT22;35690;37.536;-122.304;2022-07-01T03:01:02;23.20;47.50
49793;DHT22;35690;37.536;-122.304;2022-07-01T03:03:28;23.20;47.70
49793;DHT22;35690;37.536;-122.304;2022-07-01T03:05:57;23.10;47.70
49793;DHT22;35690;37.536;-122.304;2022-07-01T03:08:24;22.90;48.00
49793;DHT22;35690;37.536;-122.304;2022-07-01T03:10:51;23.10;47.80
49793;DHT22;35690;37.536;-122.304;2022-07-01T03:13:19;23.00;47.70
49793;DHT22;35690;37.536;-122.304;2022-07-01T03:15:45;22.90;47.60
49793;DHT22;35690;37.536;-122.304;2022-07-01T03:18:13;22.90;47.60
49793;DHT22;35690;37.536;-122.304;2022-07-01T03:20:39;22.80;47.80
49793;DHT22;35690;37.536;-122.304;2022-07-01T03:23:06;22.90;47.80
49793;DHT22;35690;37.536;-122.304;2022-07-01T03:25:32;22.90;47.70
49793;DHT22;35690;37.536;-122.304;2022-07-01T03:27:59;22.70;47.80
49793;DHT22;35690;37.536;-122.304;2022-07-01T03:30:29;22.60;48.10
49793;DHT22;35690;37.536;-122.304;2022-07-01T03:32:55;22.60;48.40
49793;DHT22;35690;37.536;-122.304;2022-07-01T03:35:22;22.50;48.30
49793;DHT22;35690;37.536;-122.304;2022-07-01T03:38:20;22.40;48.40
49793;DHT22;35690;37.536;-122.304;2022-07-01T03:40:47;22.40;48.30
49793;DHT22;35690;37.536;-122.304;2022-07-01T03:43:14;22.40;48.50
49793;DHT22;35690;37.536;-122.304;2022-07-01T03:45:40;22.20;48.70
49793;DHT22;35690;37.536;-122.304;2022-07-01T03:48:07;22.20;49.20
49793;DHT22;35690;37.536;-122.304;2022-07-01T03:50:34;22.00;49.30
49793;DHT22;35690;37.536;-122.304;2022-07-01T03:53:17;22.10;49.50
49793;DHT22;35690;37.536;-122.304;2022-07-01T03:56:03;22.10;49.30
49793;DHT22;35690;37.536;-122.304;2022-07-01T03:58:40;22.00;49.10
49793;DHT22;35690;37.536;-122.304;2022-07-01T04:01:07;21.80;49.60
49793;DHT22;35690;37.536;-122.304;2022-07-01T04:03:33;21.80;49.60
49793;DHT22;35690;37.536;-122.304;2022-07-01T04:06:05;21.80;49.80
49793;DHT22;35690;37.536;-122.304;2022-07-01T04:08:32;21.80;49.40
49793;DHT22;35690;37.536;-122.304;2022-07-01T04:10:59;21.80;49.30
49793;DHT22;35690;37.536;-122.304;2022-07-01T04:13:26;21.80;49.20
49793;DHT22;35690;37.536;-122.304;2022-07-01T04:15:53;21.80;49.10
49793;DHT22;35690;37.536;-122.304;2022-07-01T04:18:23;21.90;49.00
49793;DHT22;35690;37.536;-122.304;2022-07-01T04:20:50;21.90;49.10
49793;DHT22;35690;37.536;-122.304;2022-07-01T04:23:38;21.80;48.90
49793;DHT22;35690;37.536;-122.304;2022-07-01T04:26:06;21.70;49.70
49793;DHT22;35690;37.536;-122.304;2022-07-01T04:28:32;21.70;49.60
49793;DHT22;35690;37.536;-122.304;2022-07-01T04:30:59;21.70;49.40
49793;DHT22;35690;37.536;-122.304;2022-07-01T04:33:25;21.60;49.40
49793;DHT22;35690;37.536;-122.304;2022-07-01T04:35:52;21.70;49.40
49793;DHT22;35690;37.536;-122.304;2022-07-01T04:38:19;21.60;49.20
49793;DHT22;35690;37.536;-122.304;2022-07-01T04:40:46;21.60;49.60
49793;DHT22;35690;37.536;-122.304;2022-07-01T04:43:32;21.60;49.70
49793;DHT22;35690;37.536;-122.304;2022-07-01T04:45:59;21.50;50.10
49793;DHT22;35690;37.536;-122.304;2022-07-01T04:48:26;21.50;49.90
49793;DHT22;35690;37.536;-122.304;2022-07-01T04:50:53;21.50;49.80
49793;DHT22;35690;37.536;-122.304;2022-07-01T04:53:22;21.60;49.50
49793;DHT22;35690;37.536;-122.304;2022-07-01T04:55:49;21.50;49.50
49793;DHT22;35690;37.536;-122.304;2022-07-01T04:58:15;21.50;49.60
49793;DHT22;35690;37.536;-122.304;2022-07-01T05:00:42;21.50;49.70
49793;DHT22;35690;37.536;-122.304;2022-07-01T05:03:12;21.50;49.60
49793;DHT22;35690;37.536;-122.304;2022-07-01T05:05:38;21.40;49.80
49793;DHT22;35690;37.536;-122.304;2022-07-01T05:08:05;21.50;49.70
49793;DHT22;35690;37.536;-122.304;2022-07-01T05:10:32;21.40;49.80
49793;DHT22;35690;37.536;-122.304;2022-07-01T05:12:59;21.40;49.70
49793;DHT22;35690;37.536;-122.304;2022-07-01T05:15:25;21.40;49.60
49793;DHT22;35690;37.536;-122.304;2022-07-01T05:17:58;21.50;49.40
49793;DHT22;35690;37.536;-122.304;2022-07-01T05:20:43;21.50;49.50
49793;DHT22;35690;37.536;-122.304;2022-07-01T05:23:27;21.30;50.00
49793;DHT22;35690;37.536;-122.304;2022-07-01T05:25:55;21.30;49.90
49793;DHT22;35690;37.536;-122.304;2022-07-01T05:28:23;21.30;49.80
49793;DHT22;35690;37.536;-122.304;2022-07-01T05:30:53;21.20;50.00
49793;DHT22;35690;37.536;-122.304;2022-07-01T05:33:20;21.30;50.00
49793;DHT22;35690;37.536;-122.304;2022-07-01T05:35:47;21.20;49.80
49793;DHT22;35690;37.536;-122.304;2022-07-01T05:38:14;21.20;50.00
49793;DHT22;35690;37.536;-122.304;2022-07-01T05:40:40;21.20;50.50
49793;DHT22;35690;37.536;-122.304;2022-07-01T05:43:07;21.20;49.80
49793;DHT22;35690;37.536;-122.304;2022-07-01T05:45:33;21.20;50.30
49793;DHT22;35690;37.536;-122.304;2022-07-01T05:48:00;21.20;50.00
49793;DHT22;35690;37.536;-122.304;2022-07-01T05:50:27;21.20;50.20
49793;DHT22;35690;37.536;-122.304;2022-07-01T05:52:54;21.10;50.90
49793;DHT22;35690;37.536;-122.304;2022-07-01T05:55:21;21.10;50.20
49793;DHT22;35690;37.536;-122.304;2022-07-01T05:57:50;21.10;50.80
49793;DHT22;35690;37.536;-122.304;2022-07-01T06:00:17;21.10;50.40
49793;DHT22;35690;37.536;-122.304;2022-07-01T06:02:43;21.00;50.90
49793;DHT22;35690;37.536;-122.304;2022-07-01T06:05:13;21.00;51.20
49793;DHT22;35690;37.536;-122.304;2022-07-01T06:07:41;20.90;51.00
49793;DHT22;35690;37.536;-122.304;2022-07-01T06:10:08;21.00;50.70
49793;DHT22;35690;37.536;-122.304;2022-07-01T06:12:39;21.00;50.80
49793;DHT22;35690;37.536;-122.304;2022-07-01T06:15:07;20.90;51.10
49793;DHT22;35690;37.536;-122.304;2022-07-01T06:17:39;20.90;50.60
49793;DHT22;35690;37.536;-122.304;2022-07-01T06:20:08;21.00;50.80
49793;DHT22;35690;37.536;-122.304;2022-07-01T06:22:35;20.90;50.80
49793;DHT22;35690;37.536;-122.304;2022-07-01T06:25:05;20.90;50.90
49793;DHT22;35690;37.536;-122.304;2022-07-01T06:27:42;20.90;51.10
49793;DHT22;35690;37.536;-122.304;2022-07-01T06:30:10;20.90;50.90
49793;DHT22;35690;37.536;-122.304;2022-07-01T06:32:38;20.80;51.20
49793;DHT22;35690;37.536;-122.304;2022-07-01T06:35:05;20.80;51.10
49793;DHT22;35690;37.536;-122.304;2022-07-01T06:37:35;20.80;51.00
49793;DHT22;35690;37.536;-122.304;2022-07-01T06:40:04;20.80;50.90
49793;DHT22;35690;37.536;-122.304;2022-07-01T06:42:33;20.80;51.20
49793;DHT22;35690;37.536;-122.304;2022-07-01T06:45:01;20.80;51.40
49793;DHT22;35690;37.536;-122.304;2022-07-01T06:47:29;20.80;51.10
49793;DHT22;35690;37.536;-122.304;2022-07-01T06:49:56;20.80;51.30
49793;DHT22;35690;37.536;-122.304;2022-07-01T06:52:22;20.80;51.30
49793;DHT22;35690;37.536;-122.304;2022-07-01T06:54:49;20.80;51.10
49793;DHT22;35690;37.536;-122.304;2022-07-01T06:57:15;20.80;51.30
49793;DHT22;35690;37.536;-122.304;2022-07-01T06:59:42;20.80;51.30
49793;DHT22;35690;37.536;-122.304;2022-07-01T07:02:08;20.80;51.50
49793;DHT22;35690;37.536;-122.304;2022-07-01T07:04:40;20.80;51.30
49793;DHT22;35690;37.536;-122.304;2022-07-01T07:07:07;20.70;51.30
49793;DHT22;35690;37.536;-122.304;2022-07-01T07:09:34;20.70;51.30
49793;DHT22;35690;37.536;-122.304;2022-07-01T07:12:01;20.70;51.90
49793;DHT22;35690;37.536;-122.304;2022-07-01T07:17:50;20.70;51.70
49793;DHT22;35690;37.536;-122.304;2022-07-01T07:20:21;20.70;51.60
49793;DHT22;35690;37.536;-122.304;2022-07-01T07:22:49;20.60;51.80
49793;DHT22;35690;37.536;-122.304;2022-07-01T07:25:17;20.60;51.80
49793;DHT22;35690;37.536;-122.304;2022-07-01T07:27:46;20.70;51.80
49793;DHT22;35690;37.536;-122.304;2022-07-01T07:30:13;20.70;51.50
49793;DHT22;35690;37.536;-122.304;2022-07-01T07:32:39;20.70;51.60
49793;DHT22;35690;37.536;-122.304;2022-07-01T07:35:07;20.70;51.70
49793;DHT22;35690;37.536;-122.304;2022-07-01T07:37:35;20.60;51.80
49793;DHT22;35690;37.536;-122.304;2022-07-01T07:40:03;20.60;52.00
49793;DHT22;35690;37.536;-122.304;2022-07-01T07:42:32;20.70;51.70
49793;DHT22;35690;37.536;-122.304;2022-07-01T07:44:59;20.80;51.80
49793;DHT22;35690;37.536;-122.304;2022-07-01T07:47:28;20.70;51.70
49793;DHT22;35690;37.536;-122.304;2022-07-01T07:49:56;20.70;52.00
49793;DHT22;35690;37.536;-122.304;2022-07-01T07:52:27;20.70;51.70
49793;DHT22;35690;37.536;-122.304;2022-07-01T07:54:54;20.80;51.80
49793;DHT22;35690;37.536;-122.304;2022-07-01T07:57:21;20.70;51.80
49793;DHT22;35690;37.536;-122.304;2022-07-01T07:59:50;20.70;51.80
49793;DHT22;35690;37.536;-122.304;2022-07-01T08:02:16;20.70;51.80
49793;DHT22;35690;37.536;-122.304;2022-07-01T08:04:49;20.70;51.70
49793;DHT22;35690;37.536;-122.304;2022-07-01T08:07:19;20.60;51.70
49793;DHT22;35690;37.536;-122.304;2022-07-01T08:09:47;20.60;51.80
49793;DHT22;35690;37.536;-122.304;2022-07-01T08:12:15;20.60;52.00
49793;DHT22;35690;37.536;-122.304;2022-07-01T08:14:48;20.60;52.10
49793;DHT22;35690;37.536;-122.304;2022-07-01T08:17:15;20.60;52.10
49793;DHT22;35690;37.536;-122.304;2022-07-01T08:19:42;20.50;52.20
49793;DHT22;35690;37.536;-122.304;2022-07-01T08:22:10;20.60;52.10
49793;DHT22;35690;37.536;-122.304;2022-07-01T08:24:37;20.60;52.20
49793;DHT22;35690;37.536;-122.304;2022-07-01T08:27:06;20.60;52.10
49793;DHT22;35690;37.536;-122.304;2022-07-01T08:29:33;20.70;52.00
49793;DHT22;35690;37.536;-122.304;2022-07-01T08:32:00;20.60;51.90
49793;DHT22;35690;37.536;-122.304;2022-07-01T08:34:27;20.70;51.80
49793;DHT22;35690;37.536;-122.304;2022-07-01T08:36:54;20.60;52.00
49793;DHT22;35690;37.536;-122.304;2022-07-01T08:39:21;20.50;52.20
49793;DHT22;35690;37.536;-122.304;2022-07-01T08:41:49;20.50;52.00
49793;DHT22;35690;37.536;-122.304;2022-07-01T08:44:15;20.60;52.40
49793;DHT22;35690;37.536;-122.304;2022-07-01T08:46:45;20.60;52.20
49793;DHT22;35690;37.536;-122.304;2022-07-01T08:49:22;20.60;52.20
49793;DHT22;35690;37.536;-122.304;2022-07-01T08:51:49;20.50;52.40
49793;DHT22;35690;37.536;-122.304;2022-07-01T08:54:17;20.50;52.20
49793;DHT22;35690;37.536;-122.304;2022-07-01T08:56:44;20.50;52.30
49793;DHT22;35690;37.536;-122.304;2022-07-01T08:59:30;20.50;52.30
49793;DHT22;35690;37.536;-122.304;2022-07-01T09:02:03;20.40;52.20
49793;DHT22;35690;37.536;-122.304;2022-07-01T09:04:30;20.50;52.40
49793;DHT22;35690;37.536;-122.304;2022-07-01T09:07:04;20.40;53.00
49793;DHT22;35690;37.536;-122.304;2022-07-01T09:09:38;20.30;52.60
49793;DHT22;35690;37.536;-122.304;2022-07-01T09:12:11;20.40;52.60
49793;DHT22;35690;37.536;-122.304;2022-07-01T09:14:39;20.40;52.50
49793;DHT22;35690;37.536;-122.304;2022-07-01T09:17:07;20.50;52.60
49793;DHT22;35690;37.536;-122.304;2022-07-01T09:19:50;20.50;53.20
49793;DHT22;35690;37.536;-122.304;2022-07-01T09:22:18;20.50;52.60
49793;DHT22;35690;37.536;-122.304;2022-07-01T09:24:45;20.50;52.70
49793;DHT22;35690;37.536;-122.304;2022-07-01T09:27:15;20.40;52.60
49793;DHT22;35690;37.536;-122.304;2022-07-01T09:29:47;20.40;52.60
49793;DHT22;35690;37.536;-122.304;2022-07-01T09:32:19;20.40;52.80
49793;DHT22;35690;37.536;-122.304;2022-07-01T09:34:52;20.40;52.60
49793;DHT22;35690;37.536;-122.304;2022-07-01T09:37:21;20.40;52.60
49793;DHT22;35690;37.536;-122.304;2022-07-01T09:39:53;20.50;52.60
49793;DHT22;35690;37.536;-122.304;2022-07-01T09:42:24;20.50;52.40
49793;DHT22;35690;37.536;-122.304;2022-07-01T09:45:05;20.50;52.70
49793;DHT22;35690;37.536;-122.304;2022-07-01T09:47:40;20.40;53.20
49793;DHT22;35690;37.536;-122.304;2022-07-01T09:50:09;20.40;52.80
49793;DHT22;35690;37.536;-122.304;2022-07-01T09:52:36;20.40;53.30
49793;DHT22;35690;37.536;-122.304;2022-07-01T09:55:04;20.30;52.60
49793;DHT22;35690;37.536;-122.304;2022-07-01T09:57:32;20.40;52.70
49793;DHT22;35690;37.536;-122.304;2022-07-01T09:59:58;20.40;52.70
49793;DHT22;35690;37.536;-122.304;2022-07-01T10:02:29;20.30;52.70
49793;DHT22;35690;37.536;-122.304;2022-07-01T10:05:02;20.40;52.90
49793;DHT22;35690;37.536;-122.304;2022-07-01T10:13:23;20.40;53.00
49793;DHT22;35690;37.536;-122.304;2022-07-01T10:15:52;20.40;53.10
49793;DHT22;35690;37.536;-122.304;2022-07-01T10:18:26;20.30;53.00
49793;DHT22;35690;37.536;-122.304;2022-07-01T10:20:56;20.30;53.10
49793;DHT22;35690;37.536;-122.304;2022-07-01T10:23:27;20.40;52.90
49793;DHT22;35690;37.536;-122.304;2022-07-01T10:26:02;20.30;53.40
49793;DHT22;35690;37.536;-122.304;2022-07-01T10:28:43;20.30;53.40
49793;DHT22;35690;37.536;-122.304;2022-07-01T10:31:16;20.20;53.20
49793;DHT22;35690;37.536;-122.304;2022-07-01T10:33:57;20.10;53.50
49793;DHT22;35690;37.536;-122.304;2022-07-01T10:36:27;20.20;53.90
49793;DHT22;35690;37.536;-122.304;2022-07-01T10:39:12;20.10;53.70
49793;DHT22;35690;37.536;-122.304;2022-07-01T10:42:00;20.20;53.70
49793;DHT22;35690;37.536;-122.304;2022-07-01T10:44:29;20.20;53.50
49793;DHT22;35690;37.536;-122.304;2022-07-01T10:47:05;20.20;53.60
49793;DHT22;35690;37.536;-122.304;2022-07-01T10:52:08;20.20;53.50
49793;DHT22;35690;37.536;-122.304;2022-07-01T10:57:39;20.20;53.80
49793;DHT22;35690;37.536;-122.304;2022-07-01T11:02:39;20.10;53.70
49793;DHT22;35690;37.536;-122.304;2022-07-01T11:05:09;20.20;53.40
49793;DHT22;35690;37.536;-122.304;2022-07-01T11:07:40;20.10;54.10
49793;DHT22;35690;37.536;-122.304;2022-07-01T11:10:15;20.00;53.60
49793;DHT22;35690;37.536;-122.304;2022-07-01T11:12:42;20.00;53.50
49793;DHT22;35690;37.536;-122.304;2022-07-01T11:15:15;20.10;53.60
49793;DHT22;35690;37.536;-122.304;2022-07-01T11:17:45;20.20;53.50
49793;DHT22;35690;37.536;-122.304;2022-07-01T11:20:12;20.10;53.60
49793;DHT22;35690;37.536;-122.304;2022-07-01T11:22:40;20.10;53.60
49793;DHT22;35690;37.536;-122.304;2022-07-01T11:25:11;20.10;53.70
49793;DHT22;35690;37.536;-122.304;2022-07-01T11:27:40;20.10;53.70
49793;DHT22;35690;37.536;-122.304;2022-07-01T11:30:14;20.00;54.00
49793;DHT22;35690;37.536;-122.304;2022-07-01T11:32:48;20.00;54.40
49793;DHT22;35690;37.536;-122.304;2022-07-01T11:35:19;20.00;54.20
49793;DHT22;35690;37.536;-122.304;2022-07-01T11:40:52;20.10;54.00
49793;DHT22;35690;37.536;-122.304;2022-07-01T11:43:25;19.90;54.00
49793;DHT22;35690;37.536;-122.304;2022-07-01T11:45:52;19.90;54.20
49793;DHT22;35690;37.536;-122.304;2022-07-01T11:48:41;19.90;54.60
49793;DHT22;35690;37.536;-122.304;2022-07-01T11:51:11;19.90;54.70
49793;DHT22;35690;37.536;-122.304;2022-07-01T11:53:44;19.90;54.50
49793;DHT22;35690;37.536;-122.304;2022-07-01T11:56:14;19.90;54.50
49793;DHT22;35690;37.536;-122.304;2022-07-01T11:58:58;19.90;54.20
49793;DHT22;35690;37.536;-122.304;2022-07-01T12:01:34;19.90;54.20
49793;DHT22;35690;37.536;-122.304;2022-07-01T12:04:04;19.90;54.20
49793;DHT22;35690;37.536;-122.304;2022-07-01T12:06:34;19.90;54.30
49793;DHT22;35690;37.536;-122.304;2022-07-01T12:09:03;19.90;54.90
49793;DHT22;35690;37.536;-122.304;2022-07-01T12:11:30;19.80;54.80
49793;DHT22;35690;37.536;-122.304;2022-07-01T12:13:56;19.80;54.50
49793;DHT22;35690;37.536;-122.304;2022-07-01T12:16:24;19.80;54.80
49793;DHT22;35690;37.536;-122.304;2022-07-01T12:21:18;20.00;54.10
49793;DHT22;35690;37.536;-122.304;2022-07-01T12:24:11;20.00;54.50
49793;DHT22;35690;37.536;-122.304;2022-07-01T12:29:27;19.90;55.00
49793;DHT22;35690;37.536;-122.304;2022-07-01T12:31:57;19.80;54.40
49793;DHT22;35690;37.536;-122.304;2022-07-01T12:34:38;19.80;54.40
49793;DHT22;35690;37.536;-122.304;2022-07-01T12:37:09;19.80;55.00
49793;DHT22;35690;37.536;-122.304;2022-07-01T12:39:52;19.80;54.40
49793;DHT22;35690;37.536;-122.304;2022-07-01T12:42:28;19.90;54.50
49793;DHT22;35690;37.536;-122.304;2022-07-01T12:45:05;19.80;54.90
49793;DHT22;35690;37.536;-122.304;2022-07-01T12:47:37;19.80;54.80
49793;DHT22;35690;37.536;-122.304;2022-07-01T12:52:38;19.80;55.00
49793;DHT22;35690;37.536;-122.304;2022-07-01T12:55:21;19.70;55.40
49793;DHT22;35690;37.536;-122.304;2022-07-01T12:57:54;19.80;54.70
49793;DHT22;35690;37.536;-122.304;2022-07-01T13:00:27;19.90;54.50
49793;DHT22;35690;37.536;-122.304;2022-07-01T13:02:56;19.80;54.60
49793;DHT22;35690;37.536;-122.304;2022-07-01T13:05:23;19.80;54.60
49793;DHT22;35690;37.536;-122.304;2022-07-01T13:07:51;19.80;54.60
49793;DHT22;35690;37.536;-122.304;2022-07-01T13:10:18;19.90;54.50
49793;DHT22;35690;37.536;-122.304;2022-07-01T13:12:47;19.90;54.30
49793;DHT22;35690;37.536;-122.304;2022-07-01T13:15:16;19.90;54.40
49793;DHT22;35690;37.536;-122.304;2022-07-01T13:17:43;20.00;54.40
49793;DHT22;35690;37.536;-122.304;2022-07-01T13:20:11;19.90;55.00
49793;DHT22;35690;37.536;-122.304;2022-07-01T13:22:42;19.90;54.40
49793;DHT22;35690;37.536;-122.304;2022-07-01T13:25:12;19.90;54.30
49793;DHT22;35690;37.536;-122.304;2022-07-01T13:27:40;19.80;54.80
49793;DHT22;35690;37.536;-122.304;2022-07-01T13:30:11;19.90;54.60
49793;DHT22;35690;37.536;-122.304;2022-07-01T13:32:41;19.90;54.70
49793;DHT22;35690;37.536;-122.304;2022-07-01T13:35:09;19.90;54.50
49793;DHT22;35690;37.536;-122.304;2022-07-01T13:37:37;19.80;55.10
49793;DHT22;35690;37.536;-122.304;2022-07-01T13:40:05;19.90;54.80
49793;DHT22;35690;37.536;-122.304;2022-07-01T13:42:31;19.80;54.80
49793;DHT22;35690;37.536;-122.304;2022-07-01T13:45:00;19.80;54.70
49793;DHT22;35690;37.536;-122.304;2022-07-01T13:47:26;19.80;54.70
49793;DHT22;35690;37.536;-122.304;2022-07-01T13:49:53;19.80;54.70
49793;DHT22;35690;37.536;-122.304;2022-07-01T13:52:25;19.80;54.20
49793;DHT22;35690;37.536;-122.304;2022-07-01T13:55:14;19.90;54.80
49793;DHT22;35690;37.536;-122.304;2022-07-01T13:57:40;19.90;54.60
49793;DHT22;35690;37.536;-122.304;2022-07-01T14:00:08;19.80;54.80
49793;DHT22;35690;37.536;-122.304;2022-07-01T14:02:35;19.80;55.30
49793;DHT22;35690;37.536;-122.304;2022-07-01T14:05:02;19.80;54.90
49793;DHT22;35690;37.536;-122.304;2022-07-01T14:07:31;19.90;54.60
49793;DHT22;35690;37.536;-122.304;2022-07-01T14:09:58;20.00;54.60
49793;DHT22;35690;37.536;-122.304;2022-07-01T14:12:25;20.00;54.70
49793;DHT22;35690;37.536;-122.304;2022-07-01T14:14:52;20.10;54.40
49793;DHT22;35690;37.536;-122.304;2022-07-01T14:17:20;20.10;54.40
49793;DHT22;35690;37.536;-122.304;2022-07-01T14:19:46;19.90;55.30
49793;DHT22;35690;37.536;-122.304;2022-07-01T14:22:14;20.00;55.60
49793;DHT22;35690;37.536;-122.304;2022-07-01T14:24:41;19.80;55.60
49793;DHT22;35690;37.536;-122.304;2022-07-01T14:27:07;19.80;55.90
49793;DHT22;35690;37.536;-122.304;2022-07-01T14:29:34;19.70;55.80
49793;DHT22;35690;37.536;-122.304;2022-07-01T14:32:00;20.00;55.70
49793;DHT22;35690;37.536;-122.304;2022-07-01T14:34:27;19.90;55.80
49793;DHT22;35690;37.536;-122.304;2022-07-01T14:36:54;19.90;55.90
49793;DHT22;35690;37.536;-122.304;2022-07-01T14:39:22;19.90;56.20
49793;DHT22;35690;37.536;-122.304;2022-07-01T14:41:49;20.00;55.90
49793;DHT22;35690;37.536;-122.304;2022-07-01T14:44:17;19.90;56.00
49793;DHT22;35690;37.536;-122.304;2022-07-01T14:46:44;20.30;55.50
49793;DHT22;35690;37.536;-122.304;2022-07-01T14:49:11;20.30;55.30
49793;DHT22;35690;37.536;-122.304;2022-07-01T14:51:38;20.40;55.30
49793;DHT22;35690;37.536;-122.304;2022-07-01T14:54:04;20.40;55.20
49793;DHT22;35690;37.536;-122.304;2022-07-01T14:56:31;19.80;56.50
49793;DHT22;35690;37.536;-122.304;2022-07-01T14:58:58;20.00;56.10
49793;DHT22;35690;37.536;-122.304;2022-07-01T15:01:24;20.00;56.30
49793;DHT22;35690;37.536;-122.304;2022-07-01T15:03:51;20.10;55.60
49793;DHT22;35690;37.536;-122.304;2022-07-01T15:06:17;20.40;55.10
49793;DHT22;35690;37.536;-122.304;2022-07-01T15:08:44;20.40;55.20
49793;DHT22;35690;37.536;-122.304;2022-07-01T15:11:10;20.20;55.60
49793;DHT22;35690;37.536;-122.304;2022-07-01T15:13:37;20.20;55.80
49793;DHT22;35690;37.536;-122.304;2022-07-01T15:16:04;20.00;56.10
49793;DHT22;35690;37.536;-122.304;2022-07-01T15:18:30;20.30;55.70
49793;DHT22;35690;37.536;-122.304;2022-07-01T15:20:59;19.60;56.80
49793;DHT22;35690;37.536;-122.304;2022-07-01T15:23:27;19.10;59.10
49793;DHT22;35690;37.536;-122.304;2022-07-01T15:25:55;18.90;60.40
49793;DHT22;35690;37.536;-122.304;2022-07-01T15:28:21;19.20;59.00